createdAt,value
2017-07-10T00:01:56.434Z,92.50
2017-07-10T00:04:22.855Z,92.40
2017-07-10T00:06:50.380Z,92.40
2017-07-10T00:09:16.813Z,92.40
2017-07-10T00:11:43.262Z,92.20
2017-07-10T00:14:10.456Z,92.30
2017-07-10T00:16:36.906Z,92.30
2017-07-10T00:19:03.457Z,92.20
2017-07-10T00:21:30.233Z,92.20
2017-07-10T00:23:56.653Z,92.30
2017-07-10T00:26:23.211Z,92.40
2017-07-10T00:28:49.669Z,92.30
2017-07-10T00:31:17.036Z,92.30
2017-07-10T00:33:43.461Z,92.20
2017-07-10T00:36:09.911Z,92.30
2017-07-10T00:38:36.330Z,92.30
2017-07-10T00:41:02.894Z,92.40
2017-07-10T00:43:29.348Z,92.40
2017-07-10T00:45:55.789Z,92.30
2017-07-10T00:48:23.086Z,92.40
2017-07-10T00:50:49.519Z,92.30
2017-07-10T00:53:16.701Z,92.60
2017-07-10T00:55:43.880Z,92.40
2017-07-10T00:58:10.336Z,92.40
2017-07-10T01:00:36.751Z,92.40
2017-07-10T01:03:04.078Z,92.50
2017-07-10T01:05:30.627Z,92.40
2017-07-10T01:07:57.101Z,92.40
2017-07-10T01:10:23.558Z,92.40
2017-07-10T01:12:50.001Z,92.50
2017-07-10T01:15:16.433Z,92.50
2017-07-10T01:17:43.630Z,92.50
2017-07-10T01:20:10.079Z,92.50
2017-07-10T01:22:36.553Z,92.50
2017-07-10T01:25:03.052Z,92.20
2017-07-10T01:27:29.550Z,92.50
2017-07-10T01:29:56.026Z,92.50
2017-07-10T01:32:22.512Z,92.50
2017-07-10T01:34:49.078Z,92.50
2017-07-10T01:37:15.578Z,92.40
2017-07-10T01:39:42.985Z,92.40
2017-07-10T01:42:09.496Z,92.40
2017-07-10T01:44:36.697Z,92.40
2017-07-10T01:47:03.149Z,92.30
2017-07-10T01:49:29.650Z,92.30
2017-07-10T01:51:56.134Z,92.30
2017-07-10T01:54:23.294Z,92.40
2017-07-10T01:56:49.750Z,92.40
2017-07-10T01:59:16.166Z,92.40
2017-07-10T02:01:42.589Z,92.50
2017-07-10T02:04:09.869Z,92.60
2017-07-10T02:06:36.315Z,92.50
2017-07-10T02:09:03.616Z,92.70
2017-07-10T02:11:30.073Z,92.70
2017-07-10T02:13:56.616Z,92.80
2017-07-10T02:16:24.283Z,93.00
2017-07-10T02:18:51.572Z,93.10
2017-07-10T02:21:18.017Z,93.00
2017-07-10T02:23:44.466Z,93.00
2017-07-10T02:26:11.651Z,93.10
2017-07-10T02:28:39.450Z,93.10
2017-07-10T02:31:05.933Z,93.10
2017-07-10T02:33:32.982Z,93.00
2017-07-10T02:36:00.045Z,93.10
2017-07-10T02:38:26.508Z,93.10
2017-07-10T02:40:53.059Z,93.10
2017-07-10T02:43:19.525Z,93.00
2017-07-10T02:45:45.977Z,93.40
2017-07-10T02:48:12.417Z,93.10
2017-07-10T02:50:40.017Z,93.20
2017-07-10T02:53:06.469Z,93.20
2017-07-10T02:55:32.906Z,93.20
2017-07-10T02:58:00.088Z,93.20
2017-07-10T03:00:27.242Z,93.30
2017-07-10T03:02:54.443Z,93.30
2017-07-10T03:05:20.874Z,93.30
2017-07-10T03:07:48.046Z,93.60
2017-07-10T03:10:15.247Z,93.20
2017-07-10T03:12:41.696Z,93.20
2017-07-10T03:15:08.572Z,93.20
2017-07-10T03:17:35.020Z,93.20
2017-07-10T03:20:02.011Z,93.20
2017-07-10T03:22:28.433Z,93.20
2017-07-10T03:24:54.849Z,93.20
2017-07-10T03:27:21.295Z,93.20
2017-07-10T03:29:47.735Z,93.20
2017-07-10T03:32:14.261Z,93.20
2017-07-10T03:34:40.696Z,93.20
2017-07-10T03:37:07.895Z,93.20
2017-07-10T03:39:35.111Z,93.20
2017-07-10T03:42:01.564Z,93.10
2017-07-10T03:44:28.046Z,93.00
2017-07-10T03:46:54.532Z,92.60
2017-07-10T03:49:21.044Z,92.30
2017-07-10T03:51:47.547Z,92.20
2017-07-10T03:54:13.986Z,92.20
2017-07-10T03:56:41.148Z,92.30
2017-07-10T03:59:07.564Z,92.30
2017-07-10T04:01:34.002Z,92.20
2017-07-10T04:04:00.425Z,92.20
2017-07-10T04:06:27.570Z,92.60
2017-07-10T04:08:54.070Z,92.40
2017-07-10T04:11:20.542Z,92.50
2017-07-10T04:13:47.085Z,92.50
2017-07-10T04:16:13.493Z,92.90
2017-07-10T04:18:39.964Z,92.70
2017-07-10T04:21:06.453Z,92.70
2017-07-10T04:23:32.904Z,92.80
2017-07-10T04:26:00.183Z,92.80
2017-07-10T04:28:26.646Z,92.70
2017-07-10T04:30:53.104Z,92.80
2017-07-10T04:33:19.562Z,92.80
2017-07-10T04:35:46.013Z,92.90
2017-07-10T04:38:12.567Z,92.90
2017-07-10T04:40:39.739Z,93.00
2017-07-10T04:43:06.604Z,92.80
2017-07-10T04:45:33.552Z,93.00
2017-07-10T04:48:00.846Z,93.00
2017-07-10T04:50:27.410Z,93.00
2017-07-10T04:52:53.888Z,92.90
2017-07-10T04:55:20.937Z,92.60
2017-07-10T04:57:47.489Z,92.40
2017-07-10T05:00:13.951Z,92.00
2017-07-10T05:02:40.453Z,91.50
2017-07-10T05:05:06.937Z,91.10
2017-07-10T05:08:21.798Z,90.70
2017-07-10T05:10:48.248Z,90.20
2017-07-10T05:13:14.816Z,90.10
2017-07-10T05:15:41.303Z,90.00
2017-07-10T05:18:07.820Z,89.20
2017-07-10T05:20:34.278Z,86.20
2017-07-10T05:23:00.728Z,84.90
2017-07-10T05:25:27.903Z,82.40
2017-07-10T05:27:54.428Z,82.40
2017-07-10T05:30:21.024Z,81.30
2017-07-10T05:32:48.535Z,81.30
2017-07-10T05:35:15.036Z,81.80
2017-07-10T05:37:42.338Z,83.40
2017-07-10T05:40:08.794Z,83.40
2017-07-10T05:42:36.211Z,83.80
2017-07-10T05:45:02.670Z,85.10
2017-07-10T05:47:29.593Z,85.30
2017-07-10T05:49:56.062Z,86.40
2017-07-10T05:52:22.517Z,86.90
2017-07-10T05:54:49.066Z,87.40
2017-07-10T05:57:15.620Z,87.30
2017-07-10T05:59:42.097Z,87.10
2017-07-10T06:02:08.562Z,87.00
2017-07-10T06:04:35.090Z,87.60
2017-07-10T06:07:02.225Z,88.00
2017-07-10T06:09:28.655Z,88.00
2017-07-10T06:11:55.165Z,89.10
2017-07-10T06:14:22.368Z,90.40
2017-07-10T06:16:48.833Z,90.40
2017-07-10T06:19:15.465Z,90.50
2017-07-10T06:21:41.920Z,90.70
2017-07-10T06:24:08.394Z,91.10
2017-07-10T06:26:35.141Z,91.20
2017-07-10T06:29:01.581Z,91.10
2017-07-10T06:31:28.795Z,90.50
2017-07-10T06:33:55.532Z,90.50
2017-07-10T06:36:22.090Z,90.20
2017-07-10T06:38:48.540Z,90.30
2017-07-10T06:41:15.105Z,90.30
2017-07-10T06:43:41.625Z,90.10
2017-07-10T06:46:08.570Z,89.50
2017-07-10T06:48:35.010Z,88.40
2017-07-10T06:51:01.514Z,87.30
2017-07-10T06:53:28.002Z,85.40
2017-07-10T06:55:54.660Z,83.90
2017-07-10T06:58:21.115Z,83.10
2017-07-10T07:00:47.565Z,83.10
2017-07-10T07:03:14.859Z,85.40
2017-07-10T07:05:41.413Z,85.40
2017-07-10T07:08:08.016Z,87.30
2017-07-10T07:10:34.468Z,87.20
2017-07-10T07:13:00.908Z,87.90
2017-07-10T07:15:27.370Z,87.30
2017-07-10T07:17:53.828Z,86.60
2017-07-10T07:20:20.285Z,87.10
2017-07-10T07:22:47.125Z,87.00
2017-07-10T07:25:13.593Z,86.00
2017-07-10T07:27:40.126Z,86.20
2017-07-10T07:30:06.609Z,86.50
2017-07-10T07:32:33.158Z,87.20
2017-07-10T07:34:59.699Z,87.50
2017-07-10T07:37:26.256Z,87.60
2017-07-10T07:39:52.692Z,87.80
2017-07-10T07:42:19.879Z,89.50
2017-07-10T07:44:47.065Z,90.00
2017-07-10T07:47:13.491Z,90.00
2017-07-10T07:49:40.681Z,90.20
2017-07-10T07:52:07.913Z,90.50
2017-07-10T07:54:34.358Z,90.50
2017-07-10T07:57:00.872Z,90.30
2017-07-10T07:59:27.364Z,90.20
2017-07-10T08:01:53.832Z,89.80
2017-07-10T08:04:20.346Z,89.50
2017-07-10T08:06:46.799Z,88.90
2017-07-10T08:09:13.251Z,88.50
2017-07-10T08:11:39.699Z,87.30
2017-07-10T08:14:06.887Z,86.50
2017-07-10T08:16:33.338Z,86.50
2017-07-10T08:18:59.798Z,85.80
2017-07-10T08:21:26.272Z,85.50
2017-07-10T08:23:52.709Z,83.90
2017-07-10T08:26:19.177Z,82.40
2017-07-10T08:28:45.608Z,81.90
2017-07-10T08:31:13.279Z,79.40
2017-07-10T08:33:39.768Z,79.30
2017-07-10T08:36:06.223Z,77.00
2017-07-10T08:38:32.661Z,76.10
2017-07-10T08:40:59.836Z,73.30
2017-07-10T08:43:27.015Z,73.20
2017-07-10T08:45:54.887Z,72.30
2017-07-10T08:48:22.065Z,71.70
2017-07-10T08:50:49.353Z,70.80
2017-07-10T08:53:15.914Z,70.80
2017-07-10T08:55:42.472Z,70.80
2017-07-10T08:58:08.929Z,71.30
2017-07-10T09:00:35.412Z,71.90
2017-07-10T09:03:01.845Z,71.50
2017-07-10T09:05:28.296Z,72.40
2017-07-10T09:07:54.855Z,72.30
2017-07-10T09:10:21.274Z,70.80
2017-07-10T09:12:47.724Z,68.90
2017-07-10T09:15:14.196Z,69.10
2017-07-10T09:17:40.902Z,68.60
2017-07-10T09:20:07.346Z,67.90
2017-07-10T09:22:33.810Z,66.90
2017-07-10T09:25:00.258Z,64.80
2017-07-10T09:27:27.117Z,63.70
2017-07-10T09:29:53.573Z,62.90
2017-07-10T09:32:20.028Z,62.20
2017-07-10T09:34:46.464Z,61.00
2017-07-10T09:37:13.639Z,59.10
2017-07-10T09:39:40.851Z,58.40
2017-07-10T09:42:07.336Z,58.40
2017-07-10T09:44:33.856Z,58.70
2017-07-10T09:47:00.403Z,58.70
2017-07-10T09:49:27.364Z,57.80
2017-07-10T09:51:54.646Z,57.00
2017-07-10T09:54:21.114Z,57.00
2017-07-10T09:56:47.601Z,57.00
2017-07-10T09:59:14.079Z,56.30
2017-07-10T10:01:40.527Z,57.00
2017-07-10T10:04:07.439Z,56.50
2017-07-10T10:06:33.888Z,57.20
2017-07-10T10:09:00.361Z,57.30
2017-07-10T10:11:26.832Z,56.60
2017-07-10T10:13:53.364Z,56.50
2017-07-10T10:16:19.932Z,56.40
2017-07-10T10:18:46.408Z,55.30
2017-07-10T10:21:12.849Z,55.40
2017-07-10T10:23:39.352Z,56.60
2017-07-10T10:26:05.877Z,56.40
2017-07-10T10:28:32.305Z,55.70
2017-07-10T10:30:58.825Z,56.20
2017-07-10T10:33:25.310Z,55.60
2017-07-10T10:35:52.512Z,54.60
2017-07-10T10:38:18.977Z,54.60
2017-07-10T10:40:45.706Z,55.00
2017-07-10T10:43:13.450Z,55.00
2017-07-10T10:45:39.930Z,55.00
2017-07-10T10:48:07.330Z,54.80
2017-07-10T10:50:33.889Z,54.70
2017-07-10T10:53:00.322Z,54.90
2017-07-10T10:55:26.906Z,54.90
2017-07-10T10:57:53.350Z,54.30
2017-07-10T11:00:21.581Z,53.40
2017-07-10T11:02:48.630Z,53.40
2017-07-10T11:05:15.186Z,53.40
2017-07-10T11:07:42.463Z,53.30
2017-07-10T11:10:09.567Z,52.20
2017-07-10T11:12:36.088Z,52.70
2017-07-10T11:15:02.648Z,52.90
2017-07-10T11:17:29.203Z,53.50
2017-07-10T11:19:55.763Z,53.70
2017-07-10T11:22:22.324Z,53.40
2017-07-10T11:24:48.880Z,52.90
2017-07-10T11:27:15.332Z,52.80
2017-07-10T11:29:41.795Z,52.60
2017-07-10T11:32:08.273Z,53.30
2017-07-10T11:34:34.907Z,54.00
2017-07-10T11:37:01.469Z,55.40
2017-07-10T11:39:27.945Z,58.00
2017-07-10T11:41:54.434Z,59.50
2017-07-10T11:44:21.141Z,60.70
2017-07-10T11:46:48.064Z,61.80
2017-07-10T11:49:14.668Z,64.60
2017-07-10T11:51:41.134Z,67.10
2017-07-10T11:54:08.473Z,65.50
2017-07-10T11:56:34.982Z,65.00
2017-07-10T11:59:01.426Z,63.30
2017-07-10T12:01:28.206Z,62.10
2017-07-10T12:03:55.226Z,59.80
2017-07-10T12:06:22.431Z,57.00
2017-07-10T12:08:48.982Z,57.00
2017-07-10T12:11:15.461Z,55.20
2017-07-10T12:13:41.923Z,55.40
2017-07-10T12:16:08.451Z,55.20
2017-07-10T12:18:34.906Z,55.40
2017-07-10T12:21:01.376Z,55.20
2017-07-10T12:23:27.850Z,55.70
2017-07-10T12:25:54.377Z,55.20
2017-07-10T12:28:20.827Z,55.70
2017-07-10T12:30:48.425Z,54.30
2017-07-10T12:33:15.139Z,54.30
2017-07-10T12:35:41.736Z,54.70
2017-07-10T12:38:08.295Z,55.00
2017-07-10T12:40:35.011Z,55.20
2017-07-10T12:43:01.465Z,54.90
2017-07-10T12:45:27.947Z,54.20
2017-07-10T12:47:55.143Z,54.40
2017-07-10T12:50:21.700Z,53.80
2017-07-10T12:52:48.260Z,54.00
2017-07-10T12:55:14.962Z,54.80
2017-07-10T12:57:41.434Z,55.10
2017-07-10T13:00:07.900Z,54.80
2017-07-10T13:02:34.385Z,54.60
2017-07-10T13:05:01.883Z,55.20
2017-07-10T13:07:28.343Z,55.20
2017-07-10T13:09:55.976Z,55.30
2017-07-10T13:12:23.668Z,53.80
2017-07-10T13:14:50.969Z,53.40
2017-07-10T13:17:17.527Z,53.30
2017-07-10T13:19:44.123Z,52.10
2017-07-10T13:22:10.823Z,51.80
2017-07-10T13:24:37.304Z,50.90
2017-07-10T13:27:03.791Z,51.00
2017-07-10T13:29:30.294Z,50.70
2017-07-10T13:31:57.595Z,50.10
2017-07-10T13:34:24.050Z,50.10
2017-07-10T13:36:50.756Z,50.10
2017-07-10T13:39:17.182Z,50.40
2017-07-10T13:41:43.631Z,51.10
2017-07-10T13:44:10.079Z,51.10
2017-07-10T13:46:36.533Z,51.40
2017-07-10T13:49:04.321Z,52.20
2017-07-10T13:51:30.805Z,52.20
2017-07-10T13:53:57.746Z,52.60
2017-07-10T13:56:24.408Z,52.90
2017-07-10T13:58:50.866Z,52.90
2017-07-10T14:01:17.299Z,52.90
2017-07-10T14:03:44.466Z,53.30
2017-07-10T14:06:11.823Z,53.00
2017-07-10T14:08:38.279Z,53.50
2017-07-10T14:11:04.739Z,53.60
2017-07-10T14:13:31.239Z,53.10
2017-07-10T14:15:57.906Z,52.10
2017-07-10T14:18:24.368Z,52.10
2017-07-10T14:20:50.882Z,51.80
2017-07-10T14:23:18.798Z,51.50
2017-07-10T14:25:45.562Z,51.60
2017-07-10T14:28:12.126Z,52.60
2017-07-10T14:30:39.230Z,53.30
2017-07-10T14:33:06.347Z,56.20
2017-07-10T14:35:33.645Z,67.40
2017-07-10T14:38:00.195Z,67.40
2017-07-10T14:40:26.649Z,71.70
2017-07-10T14:42:53.416Z,74.60
2017-07-10T14:45:21.925Z,76.70
2017-07-10T14:47:48.475Z,79.20
2017-07-10T14:50:15.244Z,80.00
2017-07-10T14:52:42.473Z,82.50
2017-07-10T14:55:09.014Z,84.60
2017-07-10T14:57:35.736Z,87.10
2017-07-10T15:00:02.387Z,88.50
2017-07-10T15:02:28.951Z,89.50
2017-07-10T15:04:55.731Z,90.20
2017-07-10T15:07:22.351Z,90.70
2017-07-10T15:09:49.656Z,91.80
2017-07-10T15:12:16.208Z,91.40
2017-07-10T15:14:42.748Z,91.10
2017-07-10T15:17:10.246Z,90.30
2017-07-10T15:19:37.121Z,90.30
2017-07-10T15:22:03.626Z,89.50
2017-07-10T15:24:30.133Z,90.10
2017-07-10T15:26:58.187Z,87.10
2017-07-10T15:29:24.778Z,85.80
2017-07-10T15:31:51.336Z,85.70
2017-07-10T15:34:18.241Z,84.90
2017-07-10T15:36:44.762Z,85.40
2017-07-10T15:39:11.277Z,84.70
2017-07-10T15:41:39.311Z,84.80
2017-07-10T15:44:05.801Z,84.80
2017-07-10T15:46:32.733Z,84.50
2017-07-10T15:48:59.395Z,84.90
2017-07-10T15:51:25.981Z,85.20
2017-07-10T15:53:52.445Z,85.90
2017-07-10T15:56:18.914Z,86.70
2017-07-10T15:58:45.541Z,86.00
2017-07-10T16:01:12.018Z,85.80
2017-07-10T16:03:38.462Z,85.10
2017-07-10T16:06:05.418Z,84.80
2017-07-10T16:08:32.283Z,85.10
2017-07-10T16:10:59.495Z,85.20
2017-07-10T16:13:26.254Z,85.40
2017-07-10T16:15:52.745Z,86.00
2017-07-10T16:18:20.029Z,86.20
2017-07-10T16:20:47.330Z,86.50
2017-07-10T16:23:14.834Z,86.40
2017-07-10T16:25:41.341Z,86.40
2017-07-10T16:28:08.623Z,86.00
2017-07-10T16:30:35.184Z,86.00
2017-07-10T16:33:01.853Z,86.20
2017-07-10T16:35:28.322Z,86.20
2017-07-10T16:37:55.265Z,86.20
2017-07-10T16:40:22.029Z,86.10
2017-07-10T16:42:48.690Z,85.60
2017-07-10T16:45:15.363Z,85.80
2017-07-10T16:47:41.905Z,85.60
2017-07-10T16:50:08.879Z,85.20
2017-07-10T16:52:35.544Z,85.10
2017-07-10T16:55:02.035Z,85.80
2017-07-10T16:57:28.759Z,84.80
2017-07-10T16:59:55.280Z,84.80
2017-07-10T17:02:22.539Z,84.70
2017-07-10T17:04:49.366Z,84.90
2017-07-10T17:07:15.917Z,84.80
2017-07-10T17:09:43.105Z,85.40
2017-07-10T17:12:09.951Z,86.10
2017-07-10T17:14:36.611Z,85.60
2017-07-10T17:17:04.094Z,84.90
2017-07-10T17:19:30.571Z,84.90
2017-07-10T17:21:57.063Z,83.70
2017-07-10T17:24:23.560Z,83.90
2017-07-10T17:26:50.360Z,83.20
2017-07-10T17:29:17.495Z,82.50
2017-07-10T17:31:44.770Z,82.50
2017-07-10T17:34:11.897Z,83.50
2017-07-10T17:36:38.382Z,82.50
2017-07-10T17:39:06.185Z,83.20
2017-07-10T17:41:32.705Z,83.00
2017-07-10T17:43:59.196Z,83.20
2017-07-10T17:46:25.852Z,83.20
2017-07-10T17:48:53.025Z,83.20
2017-07-10T17:51:20.305Z,83.40
2017-07-10T17:53:46.965Z,83.20
2017-07-10T17:56:13.628Z,83.50
2017-07-10T17:58:40.367Z,83.30
2017-07-10T18:01:07.843Z,83.60
2017-07-10T18:03:37.218Z,83.40
2017-07-10T18:06:04.054Z,83.40
2017-07-10T18:08:31.609Z,83.50
2017-07-10T18:10:59.239Z,83.60
2017-07-10T18:13:28.107Z,83.20
2017-07-10T18:15:56.184Z,83.50
2017-07-10T18:18:22.781Z,83.70
2017-07-10T18:20:49.288Z,84.20
2017-07-10T18:23:18.211Z,85.00
2017-07-10T18:25:44.724Z,85.30
2017-07-10T18:28:11.571Z,85.90
2017-07-10T18:30:38.743Z,86.20
2017-07-10T18:33:06.428Z,86.50
2017-07-10T18:35:33.395Z,87.40
2017-07-10T18:38:00.155Z,87.10
2017-07-10T18:40:27.738Z,87.60
2017-07-10T18:42:56.444Z,88.00
2017-07-10T18:45:24.826Z,87.80
2017-07-10T18:47:51.709Z,87.90
2017-07-10T18:50:18.252Z,87.80
2017-07-10T18:52:45.440Z,88.30
2017-07-10T18:55:12.202Z,88.60
2017-07-10T18:57:40.987Z,88.50
2017-07-10T19:00:07.780Z,88.90
2017-07-10T19:02:36.029Z,88.50
2017-07-10T19:05:03.350Z,88.80
2017-07-10T19:07:29.955Z,88.70
2017-07-10T19:09:56.496Z,88.70
2017-07-10T19:12:23.123Z,88.60
2017-07-10T19:14:49.655Z,88.60
2017-07-10T19:17:16.900Z,88.20
2017-07-10T19:19:44.027Z,87.30
2017-07-10T19:22:11.000Z,87.20
2017-07-10T19:24:38.066Z,87.30
2017-07-10T19:27:05.087Z,87.60
2017-07-10T19:29:31.623Z,88.20
2017-07-10T19:31:58.236Z,88.70
2017-07-10T19:34:25.118Z,88.90
2017-07-10T19:36:51.797Z,89.70
2017-07-10T19:39:18.949Z,89.50
2017-07-10T19:41:46.739Z,89.60
2017-07-10T19:44:13.353Z,89.60
2017-07-10T19:46:40.160Z,89.70
2017-07-10T19:49:06.821Z,89.70
2017-07-10T19:51:34.401Z,89.60
2017-07-10T19:54:01.898Z,89.70
2017-07-10T19:56:28.414Z,89.70
2017-07-10T19:58:56.953Z,89.80
2017-07-10T20:01:23.706Z,89.10
2017-07-10T20:03:51.385Z,90.10
2017-07-10T20:06:19.472Z,90.00
2017-07-10T20:08:46.448Z,90.10
2017-07-10T20:11:13.106Z,90.20
2017-07-10T20:13:40.075Z,90.30
2017-07-10T20:16:07.350Z,90.20
2017-07-10T20:18:36.065Z,90.30
2017-07-10T20:21:04.972Z,90.60
2017-07-10T20:23:32.875Z,90.60
2017-07-10T20:25:59.926Z,90.80
2017-07-10T20:28:28.017Z,90.90
2017-07-10T20:30:54.680Z,91.00
2017-07-10T20:33:21.335Z,91.00
2017-07-10T20:35:48.102Z,91.20
2017-07-10T20:38:14.765Z,91.40
2017-07-10T20:40:42.958Z,91.50
2017-07-10T20:43:09.523Z,91.60
2017-07-10T20:45:36.483Z,91.80
2017-07-10T20:48:03.144Z,91.90
2017-07-10T20:50:29.879Z,92.00
2017-07-10T20:52:56.773Z,92.10
2017-07-10T20:55:23.536Z,92.20
2017-07-10T20:57:50.198Z,92.30
2017-07-10T21:00:16.961Z,92.40
2017-07-10T21:02:43.824Z,92.50
2017-07-10T21:05:10.263Z,92.50
2017-07-10T21:07:38.169Z,92.50
2017-07-10T21:10:05.956Z,92.90
2017-07-10T21:12:33.024Z,92.50
2017-07-10T21:14:59.890Z,92.70
2017-07-10T21:17:28.391Z,92.70
2017-07-10T21:19:55.154Z,92.80
2017-07-10T21:22:21.712Z,92.90
2017-07-10T21:24:48.884Z,93.00
2017-07-10T21:27:16.536Z,93.10
2017-07-10T21:29:43.933Z,92.90
2017-07-10T21:32:11.424Z,92.80
2017-07-10T21:34:39.099Z,92.80
2017-07-10T21:37:05.666Z,92.60
2017-07-10T21:39:32.419Z,92.60
2017-07-10T21:42:00.522Z,92.40
2017-07-10T21:44:27.060Z,92.40
2017-07-10T21:46:54.521Z,92.50
2017-07-10T21:49:21.009Z,92.50
2017-07-10T21:51:48.207Z,92.50
2017-07-10T21:54:14.684Z,92.50
2017-07-10T21:56:42.634Z,92.50
2017-07-10T21:59:09.191Z,92.60
2017-07-10T22:01:35.755Z,92.40
2017-07-10T22:04:02.207Z,92.30
2017-07-10T22:06:28.698Z,92.20
2017-07-10T22:08:55.429Z,92.20
2017-07-10T22:11:22.200Z,92.30
2017-07-10T22:13:48.627Z,92.30
2017-07-10T22:16:16.024Z,92.10
2017-07-10T22:18:42.523Z,92.30
2017-07-10T22:21:08.981Z,92.30
2017-07-10T22:23:35.494Z,92.40
2017-07-10T22:26:01.948Z,92.40
2017-07-10T22:28:28.508Z,92.40
2017-07-10T22:30:55.067Z,92.50
2017-07-10T22:33:21.541Z,92.40
2017-07-10T22:35:48.662Z,92.40
2017-07-10T22:38:15.119Z,92.40
2017-07-10T22:40:41.610Z,92.40
2017-07-10T22:43:08.070Z,92.40
2017-07-10T22:45:34.574Z,92.30
2017-07-10T22:48:01.395Z,92.40
2017-07-10T22:50:27.830Z,92.60
2017-07-10T22:52:54.998Z,92.60
2017-07-10T22:55:22.288Z,92.90
2017-07-10T22:57:48.710Z,92.50
2017-07-10T23:00:15.184Z,92.50
2017-07-10T23:02:42.378Z,92.60
2017-07-10T23:05:08.808Z,92.50
2017-07-10T23:07:36.027Z,92.60
2017-07-10T23:10:04.013Z,92.50
2017-07-10T23:12:30.557Z,92.60
2017-07-10T23:14:56.995Z,92.70
2017-07-10T23:17:24.456Z,92.70
2017-07-10T23:19:51.639Z,92.80
2017-07-10T23:22:18.903Z,92.80
2017-07-10T23:24:45.354Z,92.80
2017-07-10T23:27:11.813Z,92.80
2017-07-10T23:29:39.123Z,93.20
2017-07-10T23:32:05.607Z,92.80
2017-07-10T23:34:32.019Z,92.80
2017-07-10T23:36:59.199Z,92.80
2017-07-10T23:39:26.405Z,92.90
2017-07-10T23:41:52.934Z,92.90
2017-07-10T23:44:19.370Z,93.00
2017-07-10T23:46:46.972Z,93.30
2017-07-10T23:49:13.425Z,93.00
2017-07-10T23:51:40.275Z,93.00
2017-07-10T23:54:07.569Z,93.70
2017-07-10T23:56:34.000Z,93.30
2017-07-10T23:59:01.197Z,93.50
